sensor_id;sensor_type;location;lat;lon;timestamp;temperature;humidity
4435;DHT22;46552;52.150;8.428;2022-08-11T00:01:09;18.90;96.40
4435;DHT22;46552;52.150;8.428;2022-08-11T00:03:42;18.90;96.60
4435;DHT22;46552;52.150;8.428;2022-08-11T00:06:10;18.80;96.90
4435;DHT22;46552;52.150;8.428;2022-08-11T00:08:39;18.70;97.00
4435;DHT22;46552;52.150;8.428;2022-08-11T00:11:08;18.70;97.20
4435;DHT22;46552;52.150;8.428;2022-08-11T00:13:38;18.70;97.30
4435;DHT22;46552;52.150;8.428;2022-08-11T00:16:11;18.70;97.40
4435;DHT22;46552;52.150;8.428;2022-08-11T00:18:42;18.60;97.60
4435;DHT22;46552;52.150;8.428;2022-08-11T00:21:10;18.60;97.60
4435;DHT22;46552;52.150;8.428;2022-08-11T00:23:43;18.60;97.70
4435;DHT22;46552;52.150;8.428;2022-08-11T00:26:12;18.60;97.80
4435;DHT22;46552;52.150;8.428;2022-08-11T00:28:40;18.50;97.80
4435;DHT22;46552;52.150;8.428;2022-08-11T00:31:09;18.50;97.90
4435;DHT22;46552;52.150;8.428;2022-08-11T00:33:38;18.50;98.00
4435;DHT22;46552;52.150;8.428;2022-08-11T00:36:10;18.40;98.20
4435;DHT22;46552;52.150;8.428;2022-08-11T00:38:40;18.30;98.40
4435;DHT22;46552;52.150;8.428;2022-08-11T00:41:21;18.30;98.50
4435;DHT22;46552;52.150;8.428;2022-08-11T00:44:03;18.20;98.70
4435;DHT22;46552;52.150;8.428;2022-08-11T00:46:41;18.20;98.60
4435;DHT22;46552;52.150;8.428;2022-08-11T00:49:16;18.10;98.80
4435;DHT22;46552;52.150;8.428;2022-08-11T00:52:09;18.10;99.20
4435;DHT22;46552;52.150;8.428;2022-08-11T00:55:14;18.00;99.10
4435;DHT22;46552;52.150;8.428;2022-08-11T00:58:39;17.90;99.40
4435;DHT22;46552;52.150;8.428;2022-08-11T01:01:19;17.90;99.50
4435;DHT22;46552;52.150;8.428;2022-08-11T01:04:10;17.80;99.40
4435;DHT22;46552;52.150;8.428;2022-08-11T01:07:10;17.90;99.50
4435;DHT22;46552;52.150;8.428;2022-08-11T01:09:58;17.90;99.60
4435;DHT22;46552;52.150;8.428;2022-08-11T01:12:40;17.80;99.80
4435;DHT22;46552;52.150;8.428;2022-08-11T01:19:10;17.70;99.90
4435;DHT22;46552;52.150;8.428;2022-08-11T01:25:38;17.60;99.90
4435;DHT22;46552;52.150;8.428;2022-08-11T01:28:39;17.60;99.90
4435;DHT22;46552;52.150;8.428;2022-08-11T01:38:06;17.70;99.90
4435;DHT22;46552;52.150;8.428;2022-08-11T01:40:54;17.70;99.90
4435;DHT22;46552;52.150;8.428;2022-08-11T01:44:00;17.60;99.90
4435;DHT22;46552;52.150;8.428;2022-08-11T01:46:51;17.60;99.90
4435;DHT22;46552;52.150;8.428;2022-08-11T01:49:24;17.50;99.90
4435;DHT22;46552;52.150;8.428;2022-08-11T01:52:07;17.40;99.90
4435;DHT22;46552;52.150;8.428;2022-08-11T01:54:42;17.30;99.90
4435;DHT22;46552;52.150;8.428;2022-08-11T01:57:25;17.30;99.90
4435;DHT22;46552;52.150;8.428;2022-08-11T02:00:05;17.30;99.90
4435;DHT22;46552;52.150;8.428;2022-08-11T02:02:40;17.30;99.90
4435;DHT22;46552;52.150;8.428;2022-08-11T02:05:28;17.20;99.90
4435;DHT22;46552;52.150;8.428;2022-08-11T02:08:07;17.20;99.90
4435;DHT22;46552;52.150;8.428;2022-08-11T02:10:45;17.20;99.90
4435;DHT22;46552;52.150;8.428;2022-08-11T02:13:39;17.20;99.90
4435;DHT22;46552;52.150;8.428;2022-08-11T02:16:16;17.10;99.90
4435;DHT22;46552;52.150;8.428;2022-08-11T02:18:50;17.00;99.90
4435;DHT22;46552;52.150;8.428;2022-08-11T02:21:45;16.90;99.90
4435;DHT22;46552;52.150;8.428;2022-08-11T02:24:34;16.90;99.90
4435;DHT22;46552;52.150;8.428;2022-08-11T02:27:08;16.90;99.90
4435;DHT22;46552;52.150;8.428;2022-08-11T02:29:46;16.80;99.90
4435;DHT22;46552;52.150;8.428;2022-08-11T02:32:18;16.70;99.90
4435;DHT22;46552;52.150;8.428;2022-08-11T02:35:13;16.70;99.90
4435;DHT22;46552;52.150;8.428;2022-08-11T02:37:50;16.60;99.90
4435;DHT22;46552;52.150;8.428;2022-08-11T02:40:29;16.60;99.90
4435;DHT22;46552;52.150;8.428;2022-08-11T02:43:07;16.50;99.90
4435;DHT22;46552;52.150;8.428;2022-08-11T02:45:44;16.50;99.90
4435;DHT22;46552;52.150;8.428;2022-08-11T02:48:24;16.40;99.90
4435;DHT22;46552;52.150;8.428;2022-08-11T02:51:18;16.40;99.90
4435;DHT22;46552;52.150;8.428;2022-08-11T02:53:50;16.30;99.90
4435;DHT22;46552;52.150;8.428;2022-08-11T02:56:26;16.30;99.90
4435;DHT22;46552;52.150;8.428;2022-08-11T02:59:06;16.30;99.90
4435;DHT22;46552;52.150;8.428;2022-08-11T03:01:57;16.30;99.90
4435;DHT22;46552;52.150;8.428;2022-08-11T03:04:35;16.30;99.90
4435;DHT22;46552;52.150;8.428;2022-08-11T03:07:10;16.40;99.90
4435;DHT22;46552;52.150;8.428;2022-08-11T03:09:48;16.40;99.90
4435;DHT22;46552;52.150;8.428;2022-08-11T03:12:24;16.50;99.90
4435;DHT22;46552;52.150;8.428;2022-08-11T03:15:18;16.50;99.90
4435;DHT22;46552;52.150;8.428;2022-08-11T03:18:14;17.50;99.90
4435;DHT22;46552;52.150;8.428;2022-08-11T03:20:50;16.40;99.90
4435;DHT22;46552;52.150;8.428;2022-08-11T03:23:30;16.30;99.90
4435;DHT22;46552;52.150;8.428;2022-08-11T03:26:04;16.20;99.90
4435;DHT22;46552;52.150;8.428;2022-08-11T03:28:50;16.20;99.90
4435;DHT22;46552;52.150;8.428;2022-08-11T03:31:25;16.20;99.90
4435;DHT22;46552;52.150;8.428;2022-08-11T03:33:56;16.20;99.90
4435;DHT22;46552;52.150;8.428;2022-08-11T03:37:25;16.10;99.90
4435;DHT22;46552;52.150;8.428;2022-08-11T03:40:34;16.10;99.90
4435;DHT22;46552;52.150;8.428;2022-08-11T03:43:36;16.10;99.90
4435;DHT22;46552;52.150;8.428;2022-08-11T03:46:11;16.00;99.90
4435;DHT22;46552;52.150;8.428;2022-08-11T03:48:52;15.90;99.90
4435;DHT22;46552;52.150;8.428;2022-08-11T03:51:24;15.90;99.90
4435;DHT22;46552;52.150;8.428;2022-08-11T03:54:10;15.80;99.90
4435;DHT22;46552;52.150;8.428;2022-08-11T04:00:33;15.70;99.90
4435;DHT22;46552;52.150;8.428;2022-08-11T04:06:59;15.80;99.90
4435;DHT22;46552;52.150;8.428;2022-08-11T04:10:05;15.80;99.90
4435;DHT22;46552;52.150;8.428;2022-08-11T04:12:52;15.80;99.90
4435;DHT22;46552;52.150;8.428;2022-08-11T04:16:00;15.90;99.90
4435;DHT22;46552;52.150;8.428;2022-08-11T04:22:11;16.00;99.90
4435;DHT22;46552;52.150;8.428;2022-08-11T04:25:06;16.00;99.90
4435;DHT22;46552;52.150;8.428;2022-08-11T04:28:05;15.90;99.90
4435;DHT22;46552;52.150;8.428;2022-08-11T04:30:55;15.90;99.90
4435;DHT22;46552;52.150;8.428;2022-08-11T04:33:48;15.90;99.90
4435;DHT22;46552;52.150;8.428;2022-08-11T04:36:39;15.80;99.90
4435;DHT22;46552;52.150;8.428;2022-08-11T04:39:45;15.80;99.90
4435;DHT22;46552;52.150;8.428;2022-08-11T04:52:33;16.00;99.90
4435;DHT22;46552;52.150;8.428;2022-08-11T04:55:44;16.00;99.90
4435;DHT22;46552;52.150;8.428;2022-08-11T04:58:48;16.00;99.90
4435;DHT22;46552;52.150;8.428;2022-08-11T05:01:37;16.00;99.90
4435;DHT22;46552;52.150;8.428;2022-08-11T05:04:40;16.00;99.90
4435;DHT22;46552;52.150;8.428;2022-08-11T05:10:47;16.00;99.90
4435;DHT22;46552;52.150;8.428;2022-08-11T05:13:26;16.00;99.90
4435;DHT22;46552;52.150;8.428;2022-08-11T05:16:14;16.10;99.90
4435;DHT22;46552;52.150;8.428;2022-08-11T05:19:00;16.10;99.90
4435;DHT22;46552;52.150;8.428;2022-08-11T05:21:52;16.20;99.90
4435;DHT22;46552;52.150;8.428;2022-08-11T05:24:42;16.20;99.90
4435;DHT22;46552;52.150;8.428;2022-08-11T05:27:34;16.30;99.90
4435;DHT22;46552;52.150;8.428;2022-08-11T05:30:20;16.40;99.90
4435;DHT22;46552;52.150;8.428;2022-08-11T05:33:13;16.50;99.90
4435;DHT22;46552;52.150;8.428;2022-08-11T05:36:07;16.60;99.90
4435;DHT22;46552;52.150;8.428;2022-08-11T05:38:38;16.70;99.90
4435;DHT22;46552;52.150;8.428;2022-08-11T05:41:24;16.80;99.90
4435;DHT22;46552;52.150;8.428;2022-08-11T05:44:15;16.90;99.90
4435;DHT22;46552;52.150;8.428;2022-08-11T05:47:01;17.00;99.90
4435;DHT22;46552;52.150;8.428;2022-08-11T05:49:49;17.10;99.90
4435;DHT22;46552;52.150;8.428;2022-08-11T05:52:35;17.20;99.90
4435;DHT22;46552;52.150;8.428;2022-08-11T05:55:20;17.30;99.90
4435;DHT22;46552;52.150;8.428;2022-08-11T05:58:07;17.50;99.90
4435;DHT22;46552;52.150;8.428;2022-08-11T06:00:43;17.50;99.90
4435;DHT22;46552;52.150;8.428;2022-08-11T06:03:21;17.60;99.90
4435;DHT22;46552;52.150;8.428;2022-08-11T06:05:56;17.70;99.90
4435;DHT22;46552;52.150;8.428;2022-08-11T06:08:29;17.90;99.90
4435;DHT22;46552;52.150;8.428;2022-08-11T06:11:01;18.00;99.90
4435;DHT22;46552;52.150;8.428;2022-08-11T06:13:29;18.10;99.90
4435;DHT22;46552;52.150;8.428;2022-08-11T06:16:00;18.20;99.90
4435;DHT22;46552;52.150;8.428;2022-08-11T06:18:28;18.30;99.90
4435;DHT22;46552;52.150;8.428;2022-08-11T06:20:58;18.40;99.90
4435;DHT22;46552;52.150;8.428;2022-08-11T06:23:31;18.50;99.90
4435;DHT22;46552;52.150;8.428;2022-08-11T06:25:59;18.60;99.90
4435;DHT22;46552;52.150;8.428;2022-08-11T06:28:31;18.70;99.90
4435;DHT22;46552;52.150;8.428;2022-08-11T06:31:08;18.80;99.90
4435;DHT22;46552;52.150;8.428;2022-08-11T06:33:49;18.90;99.90
4435;DHT22;46552;52.150;8.428;2022-08-11T06:36:25;19.00;99.90
4435;DHT22;46552;52.150;8.428;2022-08-11T06:39:00;19.10;99.90
4435;DHT22;46552;52.150;8.428;2022-08-11T06:41:36;19.20;99.90
4435;DHT22;46552;52.150;8.428;2022-08-11T06:44:15;19.30;99.90
4435;DHT22;46552;52.150;8.428;2022-08-11T06:46:50;19.50;99.70
4435;DHT22;46552;52.150;8.428;2022-08-11T06:49:19;19.50;99.90
4435;DHT22;46552;52.150;8.428;2022-08-11T06:52:12;19.60;99.80
4435;DHT22;46552;52.150;8.428;2022-08-11T06:54:42;19.80;99.70
4435;DHT22;46552;52.150;8.428;2022-08-11T06:57:12;19.80;99.50
4435;DHT22;46552;52.150;8.428;2022-08-11T06:59:57;20.00;99.30
4435;DHT22;46552;52.150;8.428;2022-08-11T07:02:49;20.10;99.20
4435;DHT22;46552;52.150;8.428;2022-08-11T07:05:21;20.20;98.90
4435;DHT22;46552;52.150;8.428;2022-08-11T07:08:19;20.40;98.90
4435;DHT22;46552;52.150;8.428;2022-08-11T07:14:29;20.60;98.60
4435;DHT22;46552;52.150;8.428;2022-08-11T07:17:16;20.70;98.50
4435;DHT22;46552;52.150;8.428;2022-08-11T07:19:51;20.90;98.40
4435;DHT22;46552;52.150;8.428;2022-08-11T07:22:36;20.90;98.00
4435;DHT22;46552;52.150;8.428;2022-08-11T07:25:31;21.10;97.80
4435;DHT22;46552;52.150;8.428;2022-08-11T07:28:22;21.20;97.60
4435;DHT22;46552;52.150;8.428;2022-08-11T07:31:09;21.30;97.40
4435;DHT22;46552;52.150;8.428;2022-08-11T07:33:43;21.40;97.20
4435;DHT22;46552;52.150;8.428;2022-08-11T07:36:13;21.60;97.10
4435;DHT22;46552;52.150;8.428;2022-08-11T07:38:44;21.70;96.90
4435;DHT22;46552;52.150;8.428;2022-08-11T07:41:17;21.80;96.80
4435;DHT22;46552;52.150;8.428;2022-08-11T07:43:47;21.90;96.70
4435;DHT22;46552;52.150;8.428;2022-08-11T07:46:15;22.10;96.50
4435;DHT22;46552;52.150;8.428;2022-08-11T07:49:01;22.20;96.40
4435;DHT22;46552;52.150;8.428;2022-08-11T07:51:50;22.40;96.20
4435;DHT22;46552;52.150;8.428;2022-08-11T07:54:35;22.60;96.00
4435;DHT22;46552;52.150;8.428;2022-08-11T07:57:06;22.80;95.90
4435;DHT22;46552;52.150;8.428;2022-08-11T07:59:52;22.90;95.70
4435;DHT22;46552;52.150;8.428;2022-08-11T08:02:36;23.10;95.40
4435;DHT22;46552;52.150;8.428;2022-08-11T08:05:21;23.30;95.10
4435;DHT22;46552;52.150;8.428;2022-08-11T08:08:07;23.40;94.80
4435;DHT22;46552;52.150;8.428;2022-08-11T08:10:54;23.60;94.20
4435;DHT22;46552;52.150;8.428;2022-08-11T08:13:39;23.80;93.90
4435;DHT22;46552;52.150;8.428;2022-08-11T08:16:24;24.00;93.00
4435;DHT22;46552;52.150;8.428;2022-08-11T08:19:10;24.10;92.60
4435;DHT22;46552;52.150;8.428;2022-08-11T08:21:40;24.40;92.20
4435;DHT22;46552;52.150;8.428;2022-08-11T08:24:10;24.50;91.80
4435;DHT22;46552;52.150;8.428;2022-08-11T08:26:37;24.70;91.30
4435;DHT22;46552;52.150;8.428;2022-08-11T08:29:22;24.80;91.00
4435;DHT22;46552;52.150;8.428;2022-08-11T08:32:08;25.00;90.70
4435;DHT22;46552;52.150;8.428;2022-08-11T08:34:36;25.20;90.30
4435;DHT22;46552;52.150;8.428;2022-08-11T08:37:06;25.40;89.70
4435;DHT22;46552;52.150;8.428;2022-08-11T08:39:37;25.60;88.50
4435;DHT22;46552;52.150;8.428;2022-08-11T08:42:08;25.70;87.70
4435;DHT22;46552;52.150;8.428;2022-08-11T08:44:42;26.10;85.00
4435;DHT22;46552;52.150;8.428;2022-08-11T08:47:13;26.10;85.50
4435;DHT22;46552;52.150;8.428;2022-08-11T08:49:45;26.40;84.90
4435;DHT22;46552;52.150;8.428;2022-08-11T08:52:18;26.50;82.90
4435;DHT22;46552;52.150;8.428;2022-08-11T08:54:50;26.60;82.20
4435;DHT22;46552;52.150;8.428;2022-08-11T08:57:21;26.80;80.70
4435;DHT22;46552;52.150;8.428;2022-08-11T08:59:49;27.00;80.00
4435;DHT22;46552;52.150;8.428;2022-08-11T09:02:23;27.10;79.40
4435;DHT22;46552;52.150;8.428;2022-08-11T09:04:50;27.30;78.50
4435;DHT22;46552;52.150;8.428;2022-08-11T09:07:21;27.50;78.00
4435;DHT22;46552;52.150;8.428;2022-08-11T09:09:52;27.70;77.40
4435;DHT22;46552;52.150;8.428;2022-08-11T09:12:20;27.90;76.50
4435;DHT22;46552;52.150;8.428;2022-08-11T09:14:51;28.20;76.20
4435;DHT22;46552;52.150;8.428;2022-08-11T09:17:30;28.30;75.00
4435;DHT22;46552;52.150;8.428;2022-08-11T09:20:02;28.40;73.80
4435;DHT22;46552;52.150;8.428;2022-08-11T09:22:31;28.60;73.10
4435;DHT22;46552;52.150;8.428;2022-08-11T09:25:19;28.80;72.50
4435;DHT22;46552;52.150;8.428;2022-08-11T09:28:03;29.10;71.80
4435;DHT22;46552;52.150;8.428;2022-08-11T09:30:33;29.30;71.00
4435;DHT22;46552;52.150;8.428;2022-08-11T09:33:01;29.60;70.40
4435;DHT22;46552;52.150;8.428;2022-08-11T09:35:33;29.80;69.60
4435;DHT22;46552;52.150;8.428;2022-08-11T09:38:05;29.90;67.50
4435;DHT22;46552;52.150;8.428;2022-08-11T09:40:51;30.10;66.40
4435;DHT22;46552;52.150;8.428;2022-08-11T09:43:19;30.30;65.50
4435;DHT22;46552;52.150;8.428;2022-08-11T09:46:04;30.50;64.80
4435;DHT22;46552;52.150;8.428;2022-08-11T09:48:38;30.70;63.70
4435;DHT22;46552;52.150;8.428;2022-08-11T09:51:07;30.90;62.00
4435;DHT22;46552;52.150;8.428;2022-08-11T09:53:36;31.10;60.80
4435;DHT22;46552;52.150;8.428;2022-08-11T09:56:10;31.30;59.20
4435;DHT22;46552;52.150;8.428;2022-08-11T09:58:56;31.30;57.70
4435;DHT22;46552;52.150;8.428;2022-08-11T10:01:29;31.20;55.80
4435;DHT22;46552;52.150;8.428;2022-08-11T10:03:59;31.20;55.80
4435;DHT22;46552;52.150;8.428;2022-08-11T10:06:28;31.40;55.80
4435;DHT22;46552;52.150;8.428;2022-08-11T10:09:17;31.80;55.60
4435;DHT22;46552;52.150;8.428;2022-08-11T10:11:57;32.10;54.70
4435;DHT22;46552;52.150;8.428;2022-08-11T10:14:27;32.40;53.50
4435;DHT22;46552;52.150;8.428;2022-08-11T10:17:15;32.60;52.40
4435;DHT22;46552;52.150;8.428;2022-08-11T10:19:46;32.80;51.70
4435;DHT22;46552;52.150;8.428;2022-08-11T10:22:15;33.00;51.20
4435;DHT22;46552;52.150;8.428;2022-08-11T10:25:02;33.00;48.60
4435;DHT22;46552;52.150;8.428;2022-08-11T10:27:48;32.90;49.40
4435;DHT22;46552;52.150;8.428;2022-08-11T10:30:24;32.90;49.90
4435;DHT22;46552;52.150;8.428;2022-08-11T10:33:10;33.10;49.40
4435;DHT22;46552;52.150;8.428;2022-08-11T10:35:55;33.30;48.90
4435;DHT22;46552;52.150;8.428;2022-08-11T10:38:23;33.60;48.20
4435;DHT22;46552;52.150;8.428;2022-08-11T10:40:52;33.50;47.00
4435;DHT22;46552;52.150;8.428;2022-08-11T10:43:38;33.40;46.40
4435;DHT22;46552;52.150;8.428;2022-08-11T10:46:09;33.10;45.80
4435;DHT22;46552;52.150;8.428;2022-08-11T10:48:55;32.90;46.30
4435;DHT22;46552;52.150;8.428;2022-08-11T10:51:23;33.20;46.50
4435;DHT22;46552;52.150;8.428;2022-08-11T10:54:09;33.40;45.60
4435;DHT22;46552;52.150;8.428;2022-08-11T10:56:56;33.30;45.50
4435;DHT22;46552;52.150;8.428;2022-08-11T10:59:43;33.40;45.10
4435;DHT22;46552;52.150;8.428;2022-08-11T11:02:13;33.30;44.10
4435;DHT22;46552;52.150;8.428;2022-08-11T11:04:56;33.40;44.10
4435;DHT22;46552;52.150;8.428;2022-08-11T11:07:35;33.50;44.10
4435;DHT22;46552;52.150;8.428;2022-08-11T11:10:04;33.80;44.40
4435;DHT22;46552;52.150;8.428;2022-08-11T11:12:38;34.00;43.60
4435;DHT22;46552;52.150;8.428;2022-08-11T11:15:26;34.20;43.20
4435;DHT22;46552;52.150;8.428;2022-08-11T11:18:17;34.10;43.40
4435;DHT22;46552;52.150;8.428;2022-08-11T11:20:49;34.40;43.70
4435;DHT22;46552;52.150;8.428;2022-08-11T11:23:22;34.70;43.00
4435;DHT22;46552;52.150;8.428;2022-08-11T11:26:25;34.80;42.90
4435;DHT22;46552;52.150;8.428;2022-08-11T11:29:16;35.10;43.10
4435;DHT22;46552;52.150;8.428;2022-08-11T11:32:03;35.30;42.30
4435;DHT22;46552;52.150;8.428;2022-08-11T11:34:46;35.40;41.80
4435;DHT22;46552;52.150;8.428;2022-08-11T11:37:17;35.60;41.70
4435;DHT22;46552;52.150;8.428;2022-08-11T11:39:45;35.80;41.70
4435;DHT22;46552;52.150;8.428;2022-08-11T11:42:13;35.90;41.60
4435;DHT22;46552;52.150;8.428;2022-08-11T11:44:44;35.90;40.00
4435;DHT22;46552;52.150;8.428;2022-08-11T11:47:15;35.80;40.60
4435;DHT22;46552;52.150;8.428;2022-08-11T11:49:44;35.70;40.20
4435;DHT22;46552;52.150;8.428;2022-08-11T11:52:15;35.60;40.00
4435;DHT22;46552;52.150;8.428;2022-08-11T11:54:45;35.60;40.30
4435;DHT22;46552;52.150;8.428;2022-08-11T11:57:16;35.70;40.60
4435;DHT22;46552;52.150;8.428;2022-08-11T12:00:03;36.00;40.70
4435;DHT22;46552;52.150;8.428;2022-08-11T12:02:51;36.20;40.50
4435;DHT22;46552;52.150;8.428;2022-08-11T12:05:18;36.30;40.30
4435;DHT22;46552;52.150;8.428;2022-08-11T12:07:46;36.40;40.30
4435;DHT22;46552;52.150;8.428;2022-08-11T12:10:31;36.50;40.10
4435;DHT22;46552;52.150;8.428;2022-08-11T12:13:00;36.50;39.70
4435;DHT22;46552;52.150;8.428;2022-08-11T12:15:45;36.50;39.60
4435;DHT22;46552;52.150;8.428;2022-08-11T12:18:15;36.50;39.50
4435;DHT22;46552;52.150;8.428;2022-08-11T12:20:43;36.60;39.30
4435;DHT22;46552;52.150;8.428;2022-08-11T12:23:11;36.60;39.20
4435;DHT22;46552;52.150;8.428;2022-08-11T12:25:58;36.60;39.00
4435;DHT22;46552;52.150;8.428;2022-08-11T12:28:43;36.60;38.80
4435;DHT22;46552;52.150;8.428;2022-08-11T12:31:11;36.60;38.50
4435;DHT22;46552;52.150;8.428;2022-08-11T12:33:40;36.60;38.40
4435;DHT22;46552;52.150;8.428;2022-08-11T12:36:09;36.50;37.80
4435;DHT22;46552;52.150;8.428;2022-08-11T12:38:42;36.10;37.20
4435;DHT22;46552;52.150;8.428;2022-08-11T12:41:11;35.90;37.50
4435;DHT22;46552;52.150;8.428;2022-08-11T12:43:57;35.70;37.30
4435;DHT22;46552;52.150;8.428;2022-08-11T12:46:44;35.60;37.40
4435;DHT22;46552;52.150;8.428;2022-08-11T12:49:15;35.30;37.30
4435;DHT22;46552;52.150;8.428;2022-08-11T12:52:03;34.70;36.70
4435;DHT22;46552;52.150;8.428;2022-08-11T12:54:43;34.20;37.10
4435;DHT22;46552;52.150;8.428;2022-08-11T12:57:13;34.20;37.40
4435;DHT22;46552;52.150;8.428;2022-08-11T12:59:59;34.40;37.10
4435;DHT22;46552;52.150;8.428;2022-08-11T13:02:46;34.70;37.20
4435;DHT22;46552;52.150;8.428;2022-08-11T13:05:33;34.90;36.90
4435;DHT22;46552;52.150;8.428;2022-08-11T13:08:01;35.20;36.90
4435;DHT22;46552;52.150;8.428;2022-08-11T13:10:31;35.40;36.70
4435;DHT22;46552;52.150;8.428;2022-08-11T13:13:17;35.50;36.80
4435;DHT22;46552;52.150;8.428;2022-08-11T13:15:46;35.70;36.90
4435;DHT22;46552;52.150;8.428;2022-08-11T13:18:15;35.90;37.00
4435;DHT22;46552;52.150;8.428;2022-08-11T13:20:45;35.90;37.10
4435;DHT22;46552;52.150;8.428;2022-08-11T13:23:14;36.00;37.10
4435;DHT22;46552;52.150;8.428;2022-08-11T13:25:43;36.10;37.00
4435;DHT22;46552;52.150;8.428;2022-08-11T13:28:11;36.00;36.70
4435;DHT22;46552;52.150;8.428;2022-08-11T13:30:38;36.00;36.70
4435;DHT22;46552;52.150;8.428;2022-08-11T13:33:24;35.90;36.90
4435;DHT22;46552;52.150;8.428;2022-08-11T13:35:54;36.00;36.90
4435;DHT22;46552;52.150;8.428;2022-08-11T13:38:23;35.90;36.50
4435;DHT22;46552;52.150;8.428;2022-08-11T13:40:52;35.90;36.10
4435;DHT22;46552;52.150;8.428;2022-08-11T13:43:22;35.90;36.10
4435;DHT22;46552;52.150;8.428;2022-08-11T13:45:51;35.90;35.80
4435;DHT22;46552;52.150;8.428;2022-08-11T13:48:39;35.90;35.80
4435;DHT22;46552;52.150;8.428;2022-08-11T13:51:09;35.90;35.90
4435;DHT22;46552;52.150;8.428;2022-08-11T13:53:54;36.00;36.30
4435;DHT22;46552;52.150;8.428;2022-08-11T13:56:23;36.00;36.30
4435;DHT22;46552;52.150;8.428;2022-08-11T13:58:53;36.00;36.20
4435;DHT22;46552;52.150;8.428;2022-08-11T14:01:21;35.90;35.90
4435;DHT22;46552;52.150;8.428;2022-08-11T14:03:50;35.90;35.70
4435;DHT22;46552;52.150;8.428;2022-08-11T14:06:21;35.90;35.70
4435;DHT22;46552;52.150;8.428;2022-08-11T14:08:51;35.80;35.70
4435;DHT22;46552;52.150;8.428;2022-08-11T14:11:20;35.50;35.20
4435;DHT22;46552;52.150;8.428;2022-08-11T14:14:06;35.30;35.40
4435;DHT22;46552;52.150;8.428;2022-08-11T14:16:41;35.30;36.10
4435;DHT22;46552;52.150;8.428;2022-08-11T14:19:11;35.40;35.90
4435;DHT22;46552;52.150;8.428;2022-08-11T14:21:42;35.40;36.20
4435;DHT22;46552;52.150;8.428;2022-08-11T14:24:27;35.50;36.10
4435;DHT22;46552;52.150;8.428;2022-08-11T14:26:55;35.50;36.00
4435;DHT22;46552;52.150;8.428;2022-08-11T14:29:25;35.60;36.00
4435;DHT22;46552;52.150;8.428;2022-08-11T14:31:54;35.60;35.70
4435;DHT22;46552;52.150;8.428;2022-08-11T14:34:23;35.60;35.30
4435;DHT22;46552;52.150;8.428;2022-08-11T14:36:56;35.40;35.10
4435;DHT22;46552;52.150;8.428;2022-08-11T14:39:25;35.40;35.30
4435;DHT22;46552;52.150;8.428;2022-08-11T14:41:55;35.40;35.40
4435;DHT22;46552;52.150;8.428;2022-08-11T14:44:43;35.40;35.40
4435;DHT22;46552;52.150;8.428;2022-08-11T14:47:46;35.40;35.60
4435;DHT22;46552;52.150;8.428;2022-08-11T14:50:16;35.40;35.70
4435;DHT22;46552;52.150;8.428;2022-08-11T14:52:51;35.50;35.90
4435;DHT22;46552;52.150;8.428;2022-08-11T14:55:22;35.50;35.90
4435;DHT22;46552;52.150;8.428;2022-08-11T14:58:08;35.50;36.10
4435;DHT22;46552;52.150;8.428;2022-08-11T15:00:36;35.40;36.10
4435;DHT22;46552;52.150;8.428;2022-08-11T15:03:04;35.40;36.20
4435;DHT22;46552;52.150;8.428;2022-08-11T15:05:40;35.40;36.30
4435;DHT22;46552;52.150;8.428;2022-08-11T15:08:12;35.40;36.30
4435;DHT22;46552;52.150;8.428;2022-08-11T15:10:40;35.40;36.50
4435;DHT22;46552;52.150;8.428;2022-08-11T15:13:07;35.40;36.40
4435;DHT22;46552;52.150;8.428;2022-08-11T15:15:36;35.40;37.00
4435;DHT22;46552;52.150;8.428;2022-08-11T15:18:23;35.30;35.80
4435;DHT22;46552;52.150;8.428;2022-08-11T15:20:52;35.20;35.50
4435;DHT22;46552;52.150;8.428;2022-08-11T15:23:38;35.20;35.50
4435;DHT22;46552;52.150;8.428;2022-08-11T15:26:30;35.00;35.00
4435;DHT22;46552;52.150;8.428;2022-08-11T15:29:19;34.80;34.60
4435;DHT22;46552;52.150;8.428;2022-08-11T15:32:04;34.70;34.80
4435;DHT22;46552;52.150;8.428;2022-08-11T15:34:53;34.70;35.00
4435;DHT22;46552;52.150;8.428;2022-08-11T15:37:41;34.70;35.00
4435;DHT22;46552;52.150;8.428;2022-08-11T15:40:17;34.70;35.00
4435;DHT22;46552;52.150;8.428;2022-08-11T15:43:06;34.80;35.20
4435;DHT22;46552;52.150;8.428;2022-08-11T15:45:53;34.70;35.00
4435;DHT22;46552;52.150;8.428;2022-08-11T15:48:29;34.70;35.10
4435;DHT22;46552;52.150;8.428;2022-08-11T15:51:07;34.70;35.10
4435;DHT22;46552;52.150;8.428;2022-08-11T15:53:40;34.70;35.40
4435;DHT22;46552;52.150;8.428;2022-08-11T15:56:10;34.60;35.10
4435;DHT22;46552;52.150;8.428;2022-08-11T15:58:40;34.40;35.20
4435;DHT22;46552;52.150;8.428;2022-08-11T16:01:26;34.40;35.20
4435;DHT22;46552;52.150;8.428;2022-08-11T16:04:15;34.30;35.10
4435;DHT22;46552;52.150;8.428;2022-08-11T16:06:48;34.10;34.80
4435;DHT22;46552;52.150;8.428;2022-08-11T16:09:19;34.10;34.60
4435;DHT22;46552;52.150;8.428;2022-08-11T16:11:50;34.10;34.80
4435;DHT22;46552;52.150;8.428;2022-08-11T16:14:19;34.00;35.00
4435;DHT22;46552;52.150;8.428;2022-08-11T16:17:17;33.90;35.10
4435;DHT22;46552;52.150;8.428;2022-08-11T16:19:48;33.80;35.10
4435;DHT22;46552;52.150;8.428;2022-08-11T16:22:22;33.70;34.90
4435;DHT22;46552;52.150;8.428;2022-08-11T16:24:55;33.60;35.10
4435;DHT22;46552;52.150;8.428;2022-08-11T16:27:24;33.50;35.20
4435;DHT22;46552;52.150;8.428;2022-08-11T16:29:54;33.50;35.40
4435;DHT22;46552;52.150;8.428;2022-08-11T16:32:22;33.40;35.50
4435;DHT22;46552;52.150;8.428;2022-08-11T16:34:54;33.30;35.50
4435;DHT22;46552;52.150;8.428;2022-08-11T16:37:41;33.20;35.60
4435;DHT22;46552;52.150;8.428;2022-08-11T16:40:27;33.10;35.80
4435;DHT22;46552;52.150;8.428;2022-08-11T16:42:57;32.90;35.80
4435;DHT22;46552;52.150;8.428;2022-08-11T16:45:43;32.80;35.80
4435;DHT22;46552;52.150;8.428;2022-08-11T16:48:31;32.70;35.80
4435;DHT22;46552;52.150;8.428;2022-08-11T16:50:58;32.60;35.90
4435;DHT22;46552;52.150;8.428;2022-08-11T16:53:27;32.60;36.00
4435;DHT22;46552;52.150;8.428;2022-08-11T16:55:57;32.50;36.10
4435;DHT22;46552;52.150;8.428;2022-08-11T16:58:30;32.40;36.00
4435;DHT22;46552;52.150;8.428;2022-08-11T17:01:32;32.30;36.10
4435;DHT22;46552;52.150;8.428;2022-08-11T17:04:07;32.30;36.20
4435;DHT22;46552;52.150;8.428;2022-08-11T17:06:53;32.20;36.20
4435;DHT22;46552;52.150;8.428;2022-08-11T17:09:37;32.10;36.40
4435;DHT22;46552;52.150;8.428;2022-08-11T17:12:24;32.00;36.50
4435;DHT22;46552;52.150;8.428;2022-08-11T17:15:14;31.90;36.50
4435;DHT22;46552;52.150;8.428;2022-08-11T17:18:02;31.80;36.50
4435;DHT22;46552;52.150;8.428;2022-08-11T17:20:31;31.80;36.80
4435;DHT22;46552;52.150;8.428;2022-08-11T17:23:00;31.70;37.00
4435;DHT22;46552;52.150;8.428;2022-08-11T17:25:46;31.60;37.00
4435;DHT22;46552;52.150;8.428;2022-08-11T17:28:16;31.50;37.20
4435;DHT22;46552;52.150;8.428;2022-08-11T17:30:47;31.40;37.20
4435;DHT22;46552;52.150;8.428;2022-08-11T17:33:32;31.40;37.30
4435;DHT22;46552;52.150;8.428;2022-08-11T17:36:19;31.30;37.40
4435;DHT22;46552;52.150;8.428;2022-08-11T17:38:49;31.20;37.50
4435;DHT22;46552;52.150;8.428;2022-08-11T17:41:17;31.10;37.70